Flight Track Log - Related Links

Times and Time Zones

All times are in EDT time to prevent confusion due to time zone crossing. See the AZU4314 flight status page for this flight to view local times or setup timezone preferences in your user account.


Time Position Orientation Groundspeed Altitude Reporting Facility
EDT Latitude Longitude Course Direction KTS MPH feet Rate Location/Type
Thu 01:53:20 PM -23.0130 -47.2180 238° Southwest 184 212 3,600  Level FlightAware ADS-B
Thu 01:54:02 PM -23.0320 -47.2510 238° Southwest 195 224 4,100 847 Climbing FlightAware ADS-B
Thu 01:54:45 PM -23.0540 -47.2880 237° Southwest 196 226 4,800 923 Climbing FlightAware ADS-B
Thu 01:55:20 PM -23.0630 -47.3200 253° West 192 221 5,300 774 Climbing FlightAware ADS-B
Thu 01:55:47 PM -23.0680 -47.3370 252° West 194 223 5,600 806 Climbing FlightAware ADS-B
Thu 01:56:27 PM -23.0800 -47.3750 251° West 194 223 6,200 935 Climbing FlightAware ADS-B
Thu 01:57:04 PM -23.0900 -47.4080 252° West 190 219 6,800 1,000 Climbing FlightAware ADS-B
Thu 01:57:33 PM -23.0970 -47.4360 255° West 190 219 7,300 923 Climbing FlightAware ADS-B
Thu 01:58:09 PM -23.1060 -47.4670 252° West 189 217 7,800 696 Climbing FlightAware ADS-B
Thu 01:58:42 PM -23.1160 -47.4990 251° West 200 230 8,100 171 Climbing FlightAware ADS-B
Thu 01:59:19 PM -23.1230 -47.5360 258° West 222 255 8,000 257 Descending FlightAware ADS-B
Thu 01:59:52 PM -23.1010 -47.5650 310° West 216 249 8,400 909 Climbing FlightAware ADS-B
Thu 02:00:25 PM -23.0710 -47.5920 320° Northwest 204 235 9,000 1,015 Climbing FlightAware ADS-B
Thu 02:00:57 PM -23.0470 -47.6120 323° Northwest 197 227 9,500 788 Climbing FlightAware ADS-B
Thu 02:02:04 PM -22.9990 -47.6500 324° Northwest 193 222 10,300 606 Climbing FlightAware ADS-B
Thu 02:02:36 PM -22.9790 -47.6630 329° Northwest 193 222 10,500 486 Climbing FlightAware ADS-B
Thu 02:03:18 PM -22.9460 -47.6800 335° Northwest 194 223 10,900 649 Climbing FlightAware ADS-B
Thu 02:03:50 PM -22.9170 -47.6900 342° North 193 222 11,300 689 Climbing FlightAware ADS-B
Thu 02:04:19 PM -22.8960 -47.7020 332° Northwest 195 224 11,600 627 Climbing FlightAware ADS-B
Thu 02:04:57 PM -22.8640 -47.7200 333° Northwest 195 224 12,000 578 Climbing FlightAware ADS-B
Thu 02:05:42 PM -22.8270 -47.7400 334° Northwest 195 224 12,400 558 Climbing FlightAware ADS-B
Thu 02:06:23 PM -22.7950 -47.7580 333° Northwest 195 224 12,800 592 Climbing FlightAware ADS-B
Thu 02:06:53 PM -22.7700 -47.7710 334° Northwest 198 228 13,100 522 Climbing FlightAware ADS-B
Thu 02:07:55 PM -22.7180 -47.7980 334° Northwest 201 231 13,600 505 Climbing FlightAware ADS-B
Thu 02:08:28 PM -22.6900 -47.8120 335° Northwest 201 231 13,900 585 Climbing FlightAware ADS-B
Thu 02:09:17 PM -22.6470 -47.8330 336° Northwest 201 231 14,400 532 Climbing FlightAware ADS-B
Thu 02:09:47 PM -22.6230 -47.8430 339° North 202 232 14,600 476 Climbing FlightAware ADS-B
Thu 02:10:20 PM -22.5910 -47.8530 344° North 201 231 14,900 545 Climbing FlightAware ADS-B
Thu 02:10:53 PM -22.5620 -47.8630 342° North 201 231 15,200 480 Climbing FlightAware ADS-B
Thu 02:11:35 PM -22.5260 -47.8750 343° North 202 232 15,500 486 Climbing FlightAware ADS-B
Thu 02:12:07 PM -22.4980 -47.8850 342° North 201 231 15,800 441 Climbing FlightAware ADS-B
Thu 02:12:43 PM -22.4620 -47.8970 343° North 204 235 16,000 154 Climbing FlightAware ADS-B
Thu 02:13:25 PM -22.4220 -47.9110 342° North 222 255 16,000  Level FlightAware ADS-B
Thu 02:13:58 PM -22.3890 -47.9220 343° North 233 268 16,000  Level FlightAware ADS-B
Thu 02:14:23 PM -22.3630 -47.9310 342° North 238 274 16,000  Level FlightAware ADS-B
Thu 02:15:17 PM -22.2980 -47.9540 342° North 247 284 16,000  Level FlightAware ADS-B
Thu 02:15:49 PM -22.2630 -47.9660 342° North 251 289 16,000  Level FlightAware ADS-B
Thu 02:16:36 PM -22.2110 -47.9840 342° North 252 290 16,000  Level FlightAware ADS-B
Thu 02:17:13 PM -22.1680 -47.9990 342° North 254 292 16,000  Level FlightAware ADS-B
Thu 02:17:57 PM -22.1190 -48.0160 342° North 253 291 16,000  Level FlightAware ADS-B
Thu 02:18:57 PM -22.0510 -48.0400 342° North 253 291 16,000  Level FlightAware ADS-B
Thu 02:19:29 PM -22.0150 -48.0520 343° North 253 291 16,000  Level FlightAware ADS-B
Thu 02:20:06 PM -21.9770 -48.0650 342° North 254 292 16,000  Level FlightAware ADS-B
Thu 02:20:53 PM -21.9200 -48.0850 342° North 253 291 16,000  Level FlightAware ADS-B
Thu 02:21:37 PM -21.8840 -48.1250 314° West 256 295 16,000  Level FlightAware ADS-B
Thu 02:22:17 PM -21.8540 -48.1650 309° West 257 296 16,000  Level FlightAware ADS-B
Thu 02:23:02 PM -21.8190 -48.2070 312° West 257 296 16,000  Level FlightAware ADS-B
Thu 02:23:32 PM -21.7950 -48.2360 312° West 257 296 16,000  Level FlightAware ADS-B
Thu 02:24:10 PM -21.7640 -48.2730 312° West 257 296 16,000  Level FlightAware ADS-B
Thu 02:25:16 PM -21.7120 -48.3360 312° West 259 298 16,000  Level FlightAware ADS-B
Thu 02:25:52 PM -21.6830 -48.3710 312° West 259 298 16,000  Level FlightAware ADS-B
Thu 02:26:28 PM -21.6540 -48.4060 312° West 260 299 16,000  Level FlightAware ADS-B
Thu 02:27:10 PM -21.6220 -48.4450 311° West 259 298 16,000  Level FlightAware ADS-B
Thu 02:27:54 PM -21.5840 -48.4890 313° West 259 298 16,000  Level FlightAware ADS-B
Thu 02:28:30 PM -21.5550 -48.5240 312° West 261 300 16,000  Level FlightAware ADS-B
Thu 02:29:02 PM -21.5290 -48.5550 312° West 262 302 16,000  Level FlightAware ADS-B
Thu 02:29:52 PM -21.4890 -48.6040 311° West 262 302 16,000  Level FlightAware ADS-B
Thu 02:30:56 PM -21.4370 -48.6660 312° West 263 303 16,000  Level FlightAware ADS-B
Thu 02:32:02 PM -21.3850 -48.7310 311° West 265 305 16,000  Level FlightAware ADS-B
Thu 02:32:34 PM -21.3660 -48.7690 298° West 265 305 16,000  Level FlightAware ADS-B
Thu 02:33:14 PM -21.3440 -48.8180 296° West 264 304 16,000  Level FlightAware ADS-B
Thu 02:33:54 PM -21.3220 -48.8640 297° West 264 304 16,000  Level FlightAware ADS-B
Thu 02:34:30 PM -21.3020 -48.9060 297° West 264 304 16,000  Level FlightAware ADS-B
Thu 02:35:12 PM -21.2780 -48.9550 298° West 264 304 16,000 -293 Level FlightAware ADS-B
Thu 02:35:52 PM -21.2550 -49.0030 297° West 274 315 15,600 -971 Descending FlightAware ADS-B
Thu 02:36:20 PM -21.2390 -49.0370 297° West 282 325 14,900 -1,594 Descending FlightAware ADS-B
Thu 02:36:56 PM -21.2170 -49.0830 297° West 292 336 13,900 -1,667 Descending FlightAware ADS-B
Thu 02:37:32 PM -21.1950 -49.1290 297° West 296 341 12,900 -1,691 Descending FlightAware ADS-B
Thu 02:38:46 PM -21.1490 -49.2250 297° West 286 329 10,800 -1,740 Descending FlightAware ADS-B
Thu 02:39:12 PM -21.1330 -49.2580 297° West 281 323 10,000 -1,727 Descending FlightAware ADS-B
Thu 02:39:52 PM -21.1090 -49.3060 298° West 275 316 8,900 -1,655 Descending FlightAware ADS-B
Thu 02:40:10 PM -21.1010 -49.3250 294° West 274 315 8,400 -1,475 Descending FlightAware ADS-B
Thu 02:40:53 PM -21.0800 -49.3680 298° West 270 311 7,400 -1,518 Descending FlightAware ADS-B
Thu 02:41:33 PM -21.0560 -49.4170 298° West 260 299 6,300 -1,750 Descending FlightAware ADS-B
Thu 02:42:05 PM -21.0370 -49.4570 297° West 255 293 5,300 -1,393 Descending FlightAware ADS-B
Thu 02:42:29 PM -21.0260 -49.4800 297° West 245 282 5,000 -346 Descending FlightAware ADS-B
Thu 02:42:57 PM -21.0140 -49.5060 296° West 245 282 5,000 -437 Level FlightAware ADS-B
Thu 02:46:00 PM -20.8851 -49.4410 25° Northeast  Level Estimated
Thu 02:46:13 PM -20.8790 -49.4890 25° Northeast 3,500  Level FlightAware ADS-B
Thu 02:46:50 PM -20.8640 -49.4690 51° Northeast 127 146 3,100 -696 Descending FlightAware ADS-B
Thu 02:47:22 PM -20.8530 -49.4550 50° Northeast 120 138 2,700 -656 Descending FlightAware ADS-B
Thu 02:47:54 PM -20.8410 -49.4390 51° Northeast 125 144 2,400 -563 Descending FlightAware ADS-B
Thu 02:48:26 PM -20.8290 -49.4230 51° Northeast 125 144 2,100 -643 Descending FlightAware ADS-B
Thu 02:48:50 PM -20.8200 -49.4110 51° Northeast 124 143 1,800 -750 Descending FlightAware ADS-B
Thu 02:49:30 PM -20.8140 -49.4030 51° Northeast 121 139 -2,700 Descending FlightAware ADS-B
Thu 02:49:57 PM -20.8220 -49.3920 128° Southeast 121 139  Level FlightAware ADS-B
Thu 02:53:00 PM -20.8166 -49.4065 292° West  Level Estimated
Thu 02:54:00 PM -20.8166 -49.4065 343° North  Level Estimated
Thu 02:55:00 PM -20.8166 -49.4065 343° North  Level Estimated
Thu 02:56:00 PM -20.8166 -49.4065 343° North  Level Estimated
Thu 02:57:00 PM -20.8166 -49.4065 343° North  Level Estimated
Thu 02:58:00 PM -20.8166 -49.4065 343° North  Level Estimated
Thu 02:59:00 PM -20.8166 -49.4065 343° North  Level Estimated
Thu 03:00:00 PM -20.8166 -49.4065 343° North  Level Estimated
Thu 03:01:00 PM -20.8166 -49.4065 343° North  Level Estimated
Thu 03:02:00 PM -20.8166 -49.4065 343° North  Level Estimated
Thu 03:03:00 PM -20.8166 -49.4065 343° North  Level Estimated
Thu 03:04:00 PM -20.8166 -49.4065 343° North  Level Estimated
Thu 03:05:00 PM -20.8166 -49.4065 343° North  Level Estimated
Thu 03:06:00 PM -20.8166 -49.4065 343° North  Level Estimated
Thu 03:07:00 PM -20.8166 -49.4065 343° North  Level Estimated
Thu 03:08:00 PM -20.8166 -49.4065 343° North  Level Estimated
Thu 03:09:00 PM -20.8166 -49.4065 343° North  Level Estimated
Thu 03:10:00 PM -20.8166 -49.4065 343° North  Level Estimated
Thu 03:11:00 PM -20.8166 -49.4065 343° North  Level Estimated
Thu 03:12:00 PM -20.8166 -49.4065 343° North  Level Estimated
Thu 03:13:00 PM -20.8166 -49.4065 343° North  Level Estimated
Thu 03:14:00 PM -20.8166 -49.4065 343° North  Level Estimated

Login

Don't have an account? Register now (free) for customized features, flight alerts, and more!